sensor_id;sensor_type;location;lat;lon;timestamp;temperature;humidity
4725;DHT22;2376;53.544;10.226;2024-03-06T00:02:01;4.40;99.90
4725;DHT22;2376;53.544;10.226;2024-03-06T00:04:28;4.40;99.90
4725;DHT22;2376;53.544;10.226;2024-03-06T00:06:55;4.40;99.90
4725;DHT22;2376;53.544;10.226;2024-03-06T00:09:23;4.40;99.90
4725;DHT22;2376;53.544;10.226;2024-03-06T00:11:52;4.40;99.90
4725;DHT22;2376;53.544;10.226;2024-03-06T00:14:21;4.40;99.90
4725;DHT22;2376;53.544;10.226;2024-03-06T00:16:49;4.40;99.90
4725;DHT22;2376;53.544;10.226;2024-03-06T00:19:16;4.40;99.90
4725;DHT22;2376;53.544;10.226;2024-03-06T00:21:43;4.40;99.90
4725;DHT22;2376;53.544;10.226;2024-03-06T00:24:12;4.40;99.90
4725;DHT22;2376;53.544;10.226;2024-03-06T00:26:40;4.40;99.90
4725;DHT22;2376;53.544;10.226;2024-03-06T00:29:07;4.40;99.90
4725;DHT22;2376;53.544;10.226;2024-03-06T00:31:35;4.40;99.90
4725;DHT22;2376;53.544;10.226;2024-03-06T00:34:02;4.40;99.90
4725;DHT22;2376;53.544;10.226;2024-03-06T00:36:29;4.40;99.90
4725;DHT22;2376;53.544;10.226;2024-03-06T00:38:57;4.40;99.90
4725;DHT22;2376;53.544;10.226;2024-03-06T00:41:23;4.40;99.90
4725;DHT22;2376;53.544;10.226;2024-03-06T00:43:50;4.40;99.90
4725;DHT22;2376;53.544;10.226;2024-03-06T00:46:17;4.40;99.90
4725;DHT22;2376;53.544;10.226;2024-03-06T00:48:45;4.40;99.90
4725;DHT22;2376;53.544;10.226;2024-03-06T00:51:12;4.40;99.90
4725;DHT22;2376;53.544;10.226;2024-03-06T00:53:39;4.30;99.90
4725;DHT22;2376;53.544;10.226;2024-03-06T00:56:07;4.30;99.90
4725;DHT22;2376;53.544;10.226;2024-03-06T00:58:34;4.30;99.90
4725;DHT22;2376;53.544;10.226;2024-03-06T01:01:01;4.30;99.90
4725;DHT22;2376;53.544;10.226;2024-03-06T01:03:28;4.30;99.90
4725;DHT22;2376;53.544;10.226;2024-03-06T01:05:57;4.30;99.90
4725;DHT22;2376;53.544;10.226;2024-03-06T01:08:23;4.30;99.90
4725;DHT22;2376;53.544;10.226;2024-03-06T01:10:51;4.30;99.90
4725;DHT22;2376;53.544;10.226;2024-03-06T01:13:19;4.30;99.90
4725;DHT22;2376;53.544;10.226;2024-03-06T01:15:46;4.30;99.90
4725;DHT22;2376;53.544;10.226;2024-03-06T01:18:13;4.30;99.90
4725;DHT22;2376;53.544;10.226;2024-03-06T01:20:40;4.30;99.90
4725;DHT22;2376;53.544;10.226;2024-03-06T01:23:08;4.30;99.90
4725;DHT22;2376;53.544;10.226;2024-03-06T01:25:35;4.30;99.90
4725;DHT22;2376;53.544;10.226;2024-03-06T01:28:02;4.30;99.90
4725;DHT22;2376;53.544;10.226;2024-03-06T01:30:29;4.40;99.90
4725;DHT22;2376;53.544;10.226;2024-03-06T01:32:56;4.30;99.90
4725;DHT22;2376;53.544;10.226;2024-03-06T01:35:24;4.40;99.90
4725;DHT22;2376;53.544;10.226;2024-03-06T01:37:51;4.40;99.90
4725;DHT22;2376;53.544;10.226;2024-03-06T01:40:19;4.30;99.90
4725;DHT22;2376;53.544;10.226;2024-03-06T01:42:46;4.30;99.90
4725;DHT22;2376;53.544;10.226;2024-03-06T01:45:14;4.40;99.90
4725;DHT22;2376;53.544;10.226;2024-03-06T01:47:41;4.30;99.90
4725;DHT22;2376;53.544;10.226;2024-03-06T01:50:10;4.30;99.90
4725;DHT22;2376;53.544;10.226;2024-03-06T01:52:38;4.40;99.90
4725;DHT22;2376;53.544;10.226;2024-03-06T01:55:07;4.30;99.90
4725;DHT22;2376;53.544;10.226;2024-03-06T01:57:35;4.30;99.90
4725;DHT22;2376;53.544;10.226;2024-03-06T02:00:05;4.30;99.90
4725;DHT22;2376;53.544;10.226;2024-03-06T02:02:34;4.30;99.90
4725;DHT22;2376;53.544;10.226;2024-03-06T02:05:01;4.40;99.90
4725;DHT22;2376;53.544;10.226;2024-03-06T02:07:28;4.30;99.90
4725;DHT22;2376;53.544;10.226;2024-03-06T02:09:59;4.30;99.90
4725;DHT22;2376;53.544;10.226;2024-03-06T02:12:26;4.30;99.90
4725;DHT22;2376;53.544;10.226;2024-03-06T02:14:54;4.40;99.90
4725;DHT22;2376;53.544;10.226;2024-03-06T02:17:21;4.30;99.90
4725;DHT22;2376;53.544;10.226;2024-03-06T02:19:49;4.30;99.90
4725;DHT22;2376;53.544;10.226;2024-03-06T02:22:18;4.30;99.90
4725;DHT22;2376;53.544;10.226;2024-03-06T02:24:47;4.30;99.90
4725;DHT22;2376;53.544;10.226;2024-03-06T02:27:15;4.30;99.90
4725;DHT22;2376;53.544;10.226;2024-03-06T02:29:42;4.20;99.90
4725;DHT22;2376;53.544;10.226;2024-03-06T02:32:11;4.20;99.90
4725;DHT22;2376;53.544;10.226;2024-03-06T02:34:39;4.20;99.90
4725;DHT22;2376;53.544;10.226;2024-03-06T02:37:06;4.20;99.90
4725;DHT22;2376;53.544;10.226;2024-03-06T02:39:34;4.20;99.90
4725;DHT22;2376;53.544;10.226;2024-03-06T02:42:01;4.20;99.90
4725;DHT22;2376;53.544;10.226;2024-03-06T02:44:29;4.20;99.90
4725;DHT22;2376;53.544;10.226;2024-03-06T02:46:56;4.20;99.90
4725;DHT22;2376;53.544;10.226;2024-03-06T02:49:23;4.20;99.90
4725;DHT22;2376;53.544;10.226;2024-03-06T02:51:51;4.10;99.90
4725;DHT22;2376;53.544;10.226;2024-03-06T02:54:18;4.00;99.90
4725;DHT22;2376;53.544;10.226;2024-03-06T02:56:46;4.00;99.90
4725;DHT22;2376;53.544;10.226;2024-03-06T02:59:13;4.00;99.90
4725;DHT22;2376;53.544;10.226;2024-03-06T03:01:40;4.00;99.90
4725;DHT22;2376;53.544;10.226;2024-03-06T03:04:08;4.00;99.90
4725;DHT22;2376;53.544;10.226;2024-03-06T03:06:36;4.00;99.90
4725;DHT22;2376;53.544;10.226;2024-03-06T03:09:02;3.90;99.90
4725;DHT22;2376;53.544;10.226;2024-03-06T03:11:30;3.90;99.90
4725;DHT22;2376;53.544;10.226;2024-03-06T03:13:59;3.90;99.90
4725;DHT22;2376;53.544;10.226;2024-03-06T03:16:26;3.90;99.90
4725;DHT22;2376;53.544;10.226;2024-03-06T03:18:52;3.90;99.90
4725;DHT22;2376;53.544;10.226;2024-03-06T03:21:19;3.90;99.90
4725;DHT22;2376;53.544;10.226;2024-03-06T03:23:47;3.90;99.90
4725;DHT22;2376;53.544;10.226;2024-03-06T03:26:15;3.90;99.90
4725;DHT22;2376;53.544;10.226;2024-03-06T03:28:42;3.80;99.90
4725;DHT22;2376;53.544;10.226;2024-03-06T03:31:11;3.80;99.90
4725;DHT22;2376;53.544;10.226;2024-03-06T03:36:07;3.70;99.90
4725;DHT22;2376;53.544;10.226;2024-03-06T03:38:34;3.60;99.90
4725;DHT22;2376;53.544;10.226;2024-03-06T03:41:07;3.60;99.90
4725;DHT22;2376;53.544;10.226;2024-03-06T03:43:34;3.60;99.90
4725;DHT22;2376;53.544;10.226;2024-03-06T03:46:00;3.50;99.90
4725;DHT22;2376;53.544;10.226;2024-03-06T03:48:29;3.50;99.90
4725;DHT22;2376;53.544;10.226;2024-03-06T03:50:55;3.50;99.90
4725;DHT22;2376;53.544;10.226;2024-03-06T03:53:22;3.50;99.90
4725;DHT22;2376;53.544;10.226;2024-03-06T03:55:49;3.50;99.90
4725;DHT22;2376;53.544;10.226;2024-03-06T03:58:16;3.50;99.90
4725;DHT22;2376;53.544;10.226;2024-03-06T04:00:42;3.50;99.90
4725;DHT22;2376;53.544;10.226;2024-03-06T04:03:09;3.50;99.90
4725;DHT22;2376;53.544;10.226;2024-03-06T04:05:37;3.50;99.90
4725;DHT22;2376;53.544;10.226;2024-03-06T04:08:04;3.50;99.90
4725;DHT22;2376;53.544;10.226;2024-03-06T04:10:32;3.50;99.90
4725;DHT22;2376;53.544;10.226;2024-03-06T04:12:59;3.40;99.90
4725;DHT22;2376;53.544;10.226;2024-03-06T04:15:26;3.50;99.90
4725;DHT22;2376;53.544;10.226;2024-03-06T04:17:53;3.40;99.90
4725;DHT22;2376;53.544;10.226;2024-03-06T04:20:19;3.40;99.90
4725;DHT22;2376;53.544;10.226;2024-03-06T04:22:47;3.40;99.90
4725;DHT22;2376;53.544;10.226;2024-03-06T04:25:16;3.30;99.90
4725;DHT22;2376;53.544;10.226;2024-03-06T04:27:44;3.30;99.90
4725;DHT22;2376;53.544;10.226;2024-03-06T04:30:11;3.20;99.90
4725;DHT22;2376;53.544;10.226;2024-03-06T04:32:38;3.20;99.90
4725;DHT22;2376;53.544;10.226;2024-03-06T04:35:06;3.20;99.90
4725;DHT22;2376;53.544;10.226;2024-03-06T04:37:35;3.10;99.90
4725;DHT22;2376;53.544;10.226;2024-03-06T04:40:03;3.10;99.90
4725;DHT22;2376;53.544;10.226;2024-03-06T04:42:33;3.10;99.90
4725;DHT22;2376;53.544;10.226;2024-03-06T04:45:01;3.10;99.90
4725;DHT22;2376;53.544;10.226;2024-03-06T04:47:28;3.10;99.90
4725;DHT22;2376;53.544;10.226;2024-03-06T04:49:55;3.10;99.90
4725;DHT22;2376;53.544;10.226;2024-03-06T04:52:23;3.10;99.90
4725;DHT22;2376;53.544;10.226;2024-03-06T04:54:49;3.00;99.90
4725;DHT22;2376;53.544;10.226;2024-03-06T04:57:17;3.00;99.90
4725;DHT22;2376;53.544;10.226;2024-03-06T04:59:44;2.90;99.90
4725;DHT22;2376;53.544;10.226;2024-03-06T05:02:11;2.90;99.90
4725;DHT22;2376;53.544;10.226;2024-03-06T05:04:38;2.90;99.90
4725;DHT22;2376;53.544;10.226;2024-03-06T05:07:04;2.80;99.90
4725;DHT22;2376;53.544;10.226;2024-03-06T05:09:31;2.90;99.90
4725;DHT22;2376;53.544;10.226;2024-03-06T05:11:58;2.80;99.90
4725;DHT22;2376;53.544;10.226;2024-03-06T05:14:26;2.80;99.90
4725;DHT22;2376;53.544;10.226;2024-03-06T05:16:55;2.80;99.90
4725;DHT22;2376;53.544;10.226;2024-03-06T05:19:22;2.70;99.90
4725;DHT22;2376;53.544;10.226;2024-03-06T05:21:48;2.70;99.90
4725;DHT22;2376;53.544;10.226;2024-03-06T05:24:15;2.70;99.90
4725;DHT22;2376;53.544;10.226;2024-03-06T05:26:42;2.60;99.90
4725;DHT22;2376;53.544;10.226;2024-03-06T05:29:09;2.60;99.90
4725;DHT22;2376;53.544;10.226;2024-03-06T05:31:37;2.60;99.90
4725;DHT22;2376;53.544;10.226;2024-03-06T05:34:03;2.60;99.90
4725;DHT22;2376;53.544;10.226;2024-03-06T05:36:33;2.60;99.90
4725;DHT22;2376;53.544;10.226;2024-03-06T05:39:00;2.60;99.90
4725;DHT22;2376;53.544;10.226;2024-03-06T05:41:27;2.50;99.90
4725;DHT22;2376;53.544;10.226;2024-03-06T05:43:54;2.50;99.90
4725;DHT22;2376;53.544;10.226;2024-03-06T05:46:22;2.50;99.90
4725;DHT22;2376;53.544;10.226;2024-03-06T05:48:50;2.50;99.90
4725;DHT22;2376;53.544;10.226;2024-03-06T05:51:17;2.50;99.90
4725;DHT22;2376;53.544;10.226;2024-03-06T05:53:43;2.50;99.90
4725;DHT22;2376;53.544;10.226;2024-03-06T05:56:10;2.40;99.90
4725;DHT22;2376;53.544;10.226;2024-03-06T05:58:37;2.40;99.90
4725;DHT22;2376;53.544;10.226;2024-03-06T06:01:04;2.50;99.90
4725;DHT22;2376;53.544;10.226;2024-03-06T06:03:31;2.50;99.90
4725;DHT22;2376;53.544;10.226;2024-03-06T06:05:59;2.50;99.90
4725;DHT22;2376;53.544;10.226;2024-03-06T06:08:26;2.60;99.90
4725;DHT22;2376;53.544;10.226;2024-03-06T06:10:52;2.50;99.90
4725;DHT22;2376;53.544;10.226;2024-03-06T06:13:20;2.50;99.90
4725;DHT22;2376;53.544;10.226;2024-03-06T06:15:47;2.50;99.90
4725;DHT22;2376;53.544;10.226;2024-03-06T06:18:19;2.50;99.90
4725;DHT22;2376;53.544;10.226;2024-03-06T06:20:46;2.50;99.90
4725;DHT22;2376;53.544;10.226;2024-03-06T06:23:15;2.50;99.90
4725;DHT22;2376;53.544;10.226;2024-03-06T06:25:42;2.50;99.90
4725;DHT22;2376;53.544;10.226;2024-03-06T06:28:08;2.50;99.90
4725;DHT22;2376;53.544;10.226;2024-03-06T06:30:35;2.50;99.90
4725;DHT22;2376;53.544;10.226;2024-03-06T06:33:03;2.50;99.90
4725;DHT22;2376;53.544;10.226;2024-03-06T06:35:30;2.50;99.90
4725;DHT22;2376;53.544;10.226;2024-03-06T06:37:57;2.50;99.90
4725;DHT22;2376;53.544;10.226;2024-03-06T06:40:25;2.50;99.90
4725;DHT22;2376;53.544;10.226;2024-03-06T06:42:53;2.50;99.90
4725;DHT22;2376;53.544;10.226;2024-03-06T06:45:21;2.50;99.90
4725;DHT22;2376;53.544;10.226;2024-03-06T06:47:49;2.50;99.90
4725;DHT22;2376;53.544;10.226;2024-03-06T06:50:17;2.50;99.90
4725;DHT22;2376;53.544;10.226;2024-03-06T06:52:44;2.50;99.90
4725;DHT22;2376;53.544;10.226;2024-03-06T06:55:10;2.50;99.90
4725;DHT22;2376;53.544;10.226;2024-03-06T06:57:38;2.60;99.90
4725;DHT22;2376;53.544;10.226;2024-03-06T07:00:06;2.60;99.90
4725;DHT22;2376;53.544;10.226;2024-03-06T07:02:37;2.60;99.90
4725;DHT22;2376;53.544;10.226;2024-03-06T07:05:04;2.80;99.90
4725;DHT22;2376;53.544;10.226;2024-03-06T07:07:31;2.90;99.90
4725;DHT22;2376;53.544;10.226;2024-03-06T07:09:58;2.90;99.90
4725;DHT22;2376;53.544;10.226;2024-03-06T07:12:24;2.90;99.90
4725;DHT22;2376;53.544;10.226;2024-03-06T07:14:52;3.00;99.90
4725;DHT22;2376;53.544;10.226;2024-03-06T07:17:19;3.00;99.90
4725;DHT22;2376;53.544;10.226;2024-03-06T07:19:46;3.00;99.90
4725;DHT22;2376;53.544;10.226;2024-03-06T07:22:13;3.10;99.90
4725;DHT22;2376;53.544;10.226;2024-03-06T07:24:40;3.20;99.90
4725;DHT22;2376;53.544;10.226;2024-03-06T07:27:07;3.20;99.90
4725;DHT22;2376;53.544;10.226;2024-03-06T07:29:34;3.30;99.90
4725;DHT22;2376;53.544;10.226;2024-03-06T07:32:03;3.30;99.90
4725;DHT22;2376;53.544;10.226;2024-03-06T07:34:31;3.40;99.90
4725;DHT22;2376;53.544;10.226;2024-03-06T07:36:58;3.50;99.90
4725;DHT22;2376;53.544;10.226;2024-03-06T07:39:25;3.60;99.90
4725;DHT22;2376;53.544;10.226;2024-03-06T07:41:52;3.70;99.90
4725;DHT22;2376;53.544;10.226;2024-03-06T07:44:20;3.70;99.90
4725;DHT22;2376;53.544;10.226;2024-03-06T07:46:46;3.80;99.90
4725;DHT22;2376;53.544;10.226;2024-03-06T07:49:15;3.80;99.90
4725;DHT22;2376;53.544;10.226;2024-03-06T07:51:42;3.80;99.90
4725;DHT22;2376;53.544;10.226;2024-03-06T07:54:08;3.80;99.90
4725;DHT22;2376;53.544;10.226;2024-03-06T07:56:35;3.80;99.90
4725;DHT22;2376;53.544;10.226;2024-03-06T07:59:02;3.90;99.90
4725;DHT22;2376;53.544;10.226;2024-03-06T08:01:29;3.90;99.90
4725;DHT22;2376;53.544;10.226;2024-03-06T08:03:57;4.00;99.90
4725;DHT22;2376;53.544;10.226;2024-03-06T08:06:25;4.10;99.90
4725;DHT22;2376;53.544;10.226;2024-03-06T08:08:52;4.10;99.90
4725;DHT22;2376;53.544;10.226;2024-03-06T08:11:18;4.20;99.90
4725;DHT22;2376;53.544;10.226;2024-03-06T08:13:48;4.30;99.90
4725;DHT22;2376;53.544;10.226;2024-03-06T08:16:16;4.40;99.90
4725;DHT22;2376;53.544;10.226;2024-03-06T08:18:43;4.40;99.90
4725;DHT22;2376;53.544;10.226;2024-03-06T08:21:10;4.50;99.90
4725;DHT22;2376;53.544;10.226;2024-03-06T08:23:38;4.60;99.90
4725;DHT22;2376;53.544;10.226;2024-03-06T08:26:05;4.70;99.90
4725;DHT22;2376;53.544;10.226;2024-03-06T08:28:32;4.80;99.90
4725;DHT22;2376;53.544;10.226;2024-03-06T08:31:00;4.80;99.90
4725;DHT22;2376;53.544;10.226;2024-03-06T08:33:27;4.80;99.90
4725;DHT22;2376;53.544;10.226;2024-03-06T08:35:53;4.80;99.90
4725;DHT22;2376;53.544;10.226;2024-03-06T08:38:20;4.90;99.90
4725;DHT22;2376;53.544;10.226;2024-03-06T08:40:48;4.90;99.90
4725;DHT22;2376;53.544;10.226;2024-03-06T08:43:16;5.00;99.90
4725;DHT22;2376;53.544;10.226;2024-03-06T08:45:44;5.00;99.90
4725;DHT22;2376;53.544;10.226;2024-03-06T08:48:11;5.10;99.90
4725;DHT22;2376;53.544;10.226;2024-03-06T08:50:38;5.10;99.90
4725;DHT22;2376;53.544;10.226;2024-03-06T08:53:05;5.10;99.90
4725;DHT22;2376;53.544;10.226;2024-03-06T08:55:32;5.10;99.90
4725;DHT22;2376;53.544;10.226;2024-03-06T08:58:00;5.10;99.90
4725;DHT22;2376;53.544;10.226;2024-03-06T09:00:27;5.20;99.90
4725;DHT22;2376;53.544;10.226;2024-03-06T09:02:53;5.30;99.90
4725;DHT22;2376;53.544;10.226;2024-03-06T09:05:20;5.30;99.90
4725;DHT22;2376;53.544;10.226;2024-03-06T09:07:47;5.40;99.90
4725;DHT22;2376;53.544;10.226;2024-03-06T09:10:13;5.30;99.90
4725;DHT22;2376;53.544;10.226;2024-03-06T09:12:40;5.40;99.90
4725;DHT22;2376;53.544;10.226;2024-03-06T09:15:08;5.40;99.90
4725;DHT22;2376;53.544;10.226;2024-03-06T09:17:36;5.50;99.90
4725;DHT22;2376;53.544;10.226;2024-03-06T09:20:04;5.60;99.90
4725;DHT22;2376;53.544;10.226;2024-03-06T09:22:35;5.70;99.90
4725;DHT22;2376;53.544;10.226;2024-03-06T09:25:03;5.70;99.90
4725;DHT22;2376;53.544;10.226;2024-03-06T09:27:30;5.70;99.90
4725;DHT22;2376;53.544;10.226;2024-03-06T09:29:57;5.80;99.90
4725;DHT22;2376;53.544;10.226;2024-03-06T09:32:25;5.80;99.90
4725;DHT22;2376;53.544;10.226;2024-03-06T09:34:52;5.90;99.90
4725;DHT22;2376;53.544;10.226;2024-03-06T09:37:19;6.10;99.90
4725;DHT22;2376;53.544;10.226;2024-03-06T09:39:45;6.20;99.90
4725;DHT22;2376;53.544;10.226;2024-03-06T09:42:13;6.40;99.90
4725;DHT22;2376;53.544;10.226;2024-03-06T09:44:40;6.60;99.90
4725;DHT22;2376;53.544;10.226;2024-03-06T09:47:07;6.70;99.90
4725;DHT22;2376;53.544;10.226;2024-03-06T09:49:38;6.80;99.90
4725;DHT22;2376;53.544;10.226;2024-03-06T09:52:05;6.90;99.90
4725;DHT22;2376;53.544;10.226;2024-03-06T09:54:32;6.90;99.90
4725;DHT22;2376;53.544;10.226;2024-03-06T09:56:59;6.90;99.90
4725;DHT22;2376;53.544;10.226;2024-03-06T09:59:25;6.70;99.90
4725;DHT22;2376;53.544;10.226;2024-03-06T10:01:54;6.60;99.90
4725;DHT22;2376;53.544;10.226;2024-03-06T10:04:23;6.60;99.90
4725;DHT22;2376;53.544;10.226;2024-03-06T10:06:53;6.70;99.90
4725;DHT22;2376;53.544;10.226;2024-03-06T10:09:21;6.70;99.90
4725;DHT22;2376;53.544;10.226;2024-03-06T10:11:48;6.80;99.90
4725;DHT22;2376;53.544;10.226;2024-03-06T10:14:15;6.70;99.90
4725;DHT22;2376;53.544;10.226;2024-03-06T10:16:53;6.60;99.90
4725;DHT22;2376;53.544;10.226;2024-03-06T10:19:22;6.60;99.90
4725;DHT22;2376;53.544;10.226;2024-03-06T10:21:51;6.70;99.90
4725;DHT22;2376;53.544;10.226;2024-03-06T10:24:22;6.70;99.90
4725;DHT22;2376;53.544;10.226;2024-03-06T10:26:50;6.60;99.90
4725;DHT22;2376;53.544;10.226;2024-03-06T10:29:17;6.60;99.90
4725;DHT22;2376;53.544;10.226;2024-03-06T10:31:48;6.50;99.90
4725;DHT22;2376;53.544;10.226;2024-03-06T10:34:16;6.50;99.90
4725;DHT22;2376;53.544;10.226;2024-03-06T10:36:43;6.50;99.90
4725;DHT22;2376;53.544;10.226;2024-03-06T10:39:12;6.60;99.90
4725;DHT22;2376;53.544;10.226;2024-03-06T10:41:40;6.60;99.90
4725;DHT22;2376;53.544;10.226;2024-03-06T10:44:12;6.80;99.90
4725;DHT22;2376;53.544;10.226;2024-03-06T10:46:43;6.70;99.90
4725;DHT22;2376;53.544;10.226;2024-03-06T10:49:10;6.70;99.90
4725;DHT22;2376;53.544;10.226;2024-03-06T10:51:40;6.80;99.90
4725;DHT22;2376;53.544;10.226;2024-03-06T10:54:09;6.90;99.90
4725;DHT22;2376;53.544;10.226;2024-03-06T10:56:38;7.00;99.90
4725;DHT22;2376;53.544;10.226;2024-03-06T10:59:09;7.20;99.90
4725;DHT22;2376;53.544;10.226;2024-03-06T11:01:37;7.30;99.90
4725;DHT22;2376;53.544;10.226;2024-03-06T11:04:05;7.20;99.90
4725;DHT22;2376;53.544;10.226;2024-03-06T11:06:32;7.10;99.90
4725;DHT22;2376;53.544;10.226;2024-03-06T11:09:00;7.10;99.90
4725;DHT22;2376;53.544;10.226;2024-03-06T11:11:27;7.10;99.90
4725;DHT22;2376;53.544;10.226;2024-03-06T11:14:00;7.10;99.90
4725;DHT22;2376;53.544;10.226;2024-03-06T11:16:28;7.10;99.90
4725;DHT22;2376;53.544;10.226;2024-03-06T11:19:05;7.20;99.90
4725;DHT22;2376;53.544;10.226;2024-03-06T11:21:33;7.10;99.90
4725;DHT22;2376;53.544;10.226;2024-03-06T11:24:17;7.10;99.90
4725;DHT22;2376;53.544;10.226;2024-03-06T11:26:46;7.30;99.90
4725;DHT22;2376;53.544;10.226;2024-03-06T11:29:15;7.40;99.90
4725;DHT22;2376;53.544;10.226;2024-03-06T11:32:03;7.40;99.90
4725;DHT22;2376;53.544;10.226;2024-03-06T11:34:32;7.40;99.90
4725;DHT22;2376;53.544;10.226;2024-03-06T11:37:02;7.40;99.90
4725;DHT22;2376;53.544;10.226;2024-03-06T11:39:33;7.40;99.90
4725;DHT22;2376;53.544;10.226;2024-03-06T11:42:02;7.50;99.90
4725;DHT22;2376;53.544;10.226;2024-03-06T11:44:32;7.50;99.90
4725;DHT22;2376;53.544;10.226;2024-03-06T11:46:59;7.50;99.90
4725;DHT22;2376;53.544;10.226;2024-03-06T11:49:28;7.50;99.90
4725;DHT22;2376;53.544;10.226;2024-03-06T11:51:58;7.60;99.90
4725;DHT22;2376;53.544;10.226;2024-03-06T11:54:26;7.70;99.90
4725;DHT22;2376;53.544;10.226;2024-03-06T11:56:54;7.70;99.90
4725;DHT22;2376;53.544;10.226;2024-03-06T11:59:22;7.80;99.90
4725;DHT22;2376;53.544;10.226;2024-03-06T12:01:51;8.00;99.90
4725;DHT22;2376;53.544;10.226;2024-03-06T12:04:19;8.10;99.90
4725;DHT22;2376;53.544;10.226;2024-03-06T12:06:46;8.10;99.90
4725;DHT22;2376;53.544;10.226;2024-03-06T12:09:13;8.10;99.90
4725;DHT22;2376;53.544;10.226;2024-03-06T12:11:41;8.20;99.90
4725;DHT22;2376;53.544;10.226;2024-03-06T12:14:13;8.30;99.90
4725;DHT22;2376;53.544;10.226;2024-03-06T12:16:40;8.10;99.90
4725;DHT22;2376;53.544;10.226;2024-03-06T12:19:24;8.00;99.90
4725;DHT22;2376;53.544;10.226;2024-03-06T12:21:52;8.10;99.90
4725;DHT22;2376;53.544;10.226;2024-03-06T12:24:20;8.20;99.90
4725;DHT22;2376;53.544;10.226;2024-03-06T12:26:47;8.20;99.90
4725;DHT22;2376;53.544;10.226;2024-03-06T12:29:28;8.00;99.90
4725;DHT22;2376;53.544;10.226;2024-03-06T12:31:55;7.80;99.90
4725;DHT22;2376;53.544;10.226;2024-03-06T12:34:24;7.80;99.90
4725;DHT22;2376;53.544;10.226;2024-03-06T12:36:50;7.80;99.90
4725;DHT22;2376;53.544;10.226;2024-03-06T12:39:17;7.80;99.90
4725;DHT22;2376;53.544;10.226;2024-03-06T12:41:48;7.90;99.90
4725;DHT22;2376;53.544;10.226;2024-03-06T12:44:15;8.00;99.90
4725;DHT22;2376;53.544;10.226;2024-03-06T12:46:41;8.00;99.90
4725;DHT22;2376;53.544;10.226;2024-03-06T12:51:45;7.80;99.90
4725;DHT22;2376;53.544;10.226;2024-03-06T12:54:12;7.90;99.90
4725;DHT22;2376;53.544;10.226;2024-03-06T12:56:39;7.90;99.90
4725;DHT22;2376;53.544;10.226;2024-03-06T12:59:07;7.90;99.90
4725;DHT22;2376;53.544;10.226;2024-03-06T13:01:34;7.70;99.90
4725;DHT22;2376;53.544;10.226;2024-03-06T13:04:01;7.60;99.90
4725;DHT22;2376;53.544;10.226;2024-03-06T13:06:28;7.50;99.90
4725;DHT22;2376;53.544;10.226;2024-03-06T13:09:01;7.60;99.90
4725;DHT22;2376;53.544;10.226;2024-03-06T13:11:40;7.60;99.90
4725;DHT22;2376;53.544;10.226;2024-03-06T13:14:20;7.70;99.90
4725;DHT22;2376;53.544;10.226;2024-03-06T13:16:47;7.80;99.90
4725;DHT22;2376;53.544;10.226;2024-03-06T13:19:13;7.80;99.90
4725;DHT22;2376;53.544;10.226;2024-03-06T13:21:40;7.80;99.90
4725;DHT22;2376;53.544;10.226;2024-03-06T13:24:08;7.80;99.90
4725;DHT22;2376;53.544;10.226;2024-03-06T13:26:35;7.90;99.90
4725;DHT22;2376;53.544;10.226;2024-03-06T13:29:03;7.90;99.90
4725;DHT22;2376;53.544;10.226;2024-03-06T13:31:30;8.00;99.90
4725;DHT22;2376;53.544;10.226;2024-03-06T13:33:59;8.00;99.90
4725;DHT22;2376;53.544;10.226;2024-03-06T13:36:26;8.00;99.90
4725;DHT22;2376;53.544;10.226;2024-03-06T13:38:53;8.10;99.90
4725;DHT22;2376;53.544;10.226;2024-03-06T13:41:21;8.10;99.90
4725;DHT22;2376;53.544;10.226;2024-03-06T13:43:48;8.10;99.90
4725;DHT22;2376;53.544;10.226;2024-03-06T13:46:14;8.10;99.90
4725;DHT22;2376;53.544;10.226;2024-03-06T13:48:41;8.20;99.90
4725;DHT22;2376;53.544;10.226;2024-03-06T13:51:08;8.10;99.90
4725;DHT22;2376;53.544;10.226;2024-03-06T13:53:34;8.10;99.90
4725;DHT22;2376;53.544;10.226;2024-03-06T13:56:01;8.10;99.90
4725;DHT22;2376;53.544;10.226;2024-03-06T13:58:29;8.10;99.90
4725;DHT22;2376;53.544;10.226;2024-03-06T14:00:56;8.10;99.90
4725;DHT22;2376;53.544;10.226;2024-03-06T14:03:22;8.10;99.90
4725;DHT22;2376;53.544;10.226;2024-03-06T14:05:49;8.20;99.90
4725;DHT22;2376;53.544;10.226;2024-03-06T14:08:16;8.30;99.90
4725;DHT22;2376;53.544;10.226;2024-03-06T14:10:43;8.10;99.90
4725;DHT22;2376;53.544;10.226;2024-03-06T14:13:11;8.10;99.90
4725;DHT22;2376;53.544;10.226;2024-03-06T14:15:39;8.10;99.90
4725;DHT22;2376;53.544;10.226;2024-03-06T14:18:06;7.90;99.90
4725;DHT22;2376;53.544;10.226;2024-03-06T14:20:32;7.90;99.90
4725;DHT22;2376;53.544;10.226;2024-03-06T14:22:59;7.80;99.90
4725;DHT22;2376;53.544;10.226;2024-03-06T14:25:26;7.70;99.90
4725;DHT22;2376;53.544;10.226;2024-03-06T14:27:52;7.60;99.90
4725;DHT22;2376;53.544;10.226;2024-03-06T14:30:19;7.60;99.90
4725;DHT22;2376;53.544;10.226;2024-03-06T14:32:48;7.70;99.90
4725;DHT22;2376;53.544;10.226;2024-03-06T14:35:15;7.70;99.90
4725;DHT22;2376;53.544;10.226;2024-03-06T14:37:41;7.70;99.90
4725;DHT22;2376;53.544;10.226;2024-03-06T14:40:09;7.80;99.90
4725;DHT22;2376;53.544;10.226;2024-03-06T14:42:36;7.90;99.90
4725;DHT22;2376;53.544;10.226;2024-03-06T14:45:03;7.90;99.90
4725;DHT22;2376;53.544;10.226;2024-03-06T14:47:31;7.90;99.90
4725;DHT22;2376;53.544;10.226;2024-03-06T14:49:59;7.90;99.90
4725;DHT22;2376;53.544;10.226;2024-03-06T14:52:26;7.90;99.90
4725;DHT22;2376;53.544;10.226;2024-03-06T14:54:53;7.90;99.90
4725;DHT22;2376;53.544;10.226;2024-03-06T14:57:19;7.90;99.90
4725;DHT22;2376;53.544;10.226;2024-03-06T14:59:47;7.80;99.90
4725;DHT22;2376;53.544;10.226;2024-03-06T15:02:14;7.80;99.90
4725;DHT22;2376;53.544;10.226;2024-03-06T15:04:41;7.70;99.90
4725;DHT22;2376;53.544;10.226;2024-03-06T15:07:09;7.70;99.90
4725;DHT22;2376;53.544;10.226;2024-03-06T15:09:35;7.60;99.90
4725;DHT22;2376;53.544;10.226;2024-03-06T15:12:02;7.60;99.90
4725;DHT22;2376;53.544;10.226;2024-03-06T15:14:30;7.50;99.90
4725;DHT22;2376;53.544;10.226;2024-03-06T15:16:57;7.50;99.90
4725;DHT22;2376;53.544;10.226;2024-03-06T15:19:23;7.40;99.90
4725;DHT22;2376;53.544;10.226;2024-03-06T15:21:50;7.30;99.90
4725;DHT22;2376;53.544;10.226;2024-03-06T15:24:18;7.20;99.90
4725;DHT22;2376;53.544;10.226;2024-03-06T15:26:45;7.10;99.90
4725;DHT22;2376;53.544;10.226;2024-03-06T15:29:12;7.00;99.90
4725;DHT22;2376;53.544;10.226;2024-03-06T15:31:38;6.90;99.90
4725;DHT22;2376;53.544;10.226;2024-03-06T15:34:05;6.90;99.90
4725;DHT22;2376;53.544;10.226;2024-03-06T15:36:32;6.90;99.90
4725;DHT22;2376;53.544;10.226;2024-03-06T15:38:59;6.90;99.90
4725;DHT22;2376;53.544;10.226;2024-03-06T15:41:27;6.80;99.90
4725;DHT22;2376;53.544;10.226;2024-03-06T15:43:53;6.90;99.90
4725;DHT22;2376;53.544;10.226;2024-03-06T15:46:20;6.80;99.90
4725;DHT22;2376;53.544;10.226;2024-03-06T15:48:48;6.80;99.90
4725;DHT22;2376;53.544;10.226;2024-03-06T15:51:15;6.80;99.90
4725;DHT22;2376;53.544;10.226;2024-03-06T15:53:42;6.70;99.90
4725;DHT22;2376;53.544;10.226;2024-03-06T15:56:09;6.70;99.90
4725;DHT22;2376;53.544;10.226;2024-03-06T15:58:37;6.60;99.90
4725;DHT22;2376;53.544;10.226;2024-03-06T16:01:05;6.60;99.90
4725;DHT22;2376;53.544;10.226;2024-03-06T16:03:32;6.60;99.90
4725;DHT22;2376;53.544;10.226;2024-03-06T16:05:59;6.60;99.90
4725;DHT22;2376;53.544;10.226;2024-03-06T16:08:26;6.50;99.90
4725;DHT22;2376;53.544;10.226;2024-03-06T16:10:54;6.60;99.90